sensor_id;sensor_type;location;lat;lon;timestamp;P1;durP1;ratioP1;P2;durP2;ratioP2
9310;SDS011;4694;52.464;13.480;2023-03-30T05:33:46;13.10;;;8.35;;
9310;SDS011;4694;52.464;13.480;2023-03-30T05:36:13;23.38;;;11.52;;
9310;SDS011;4694;52.464;13.480;2023-03-30T05:38:40;15.15;;;9.48;;
9310;SDS011;4694;52.464;13.480;2023-03-30T05:41:07;15.48;;;8.98;;
9310;SDS011;4694;52.464;13.480;2023-03-30T05:43:35;12.88;;;7.88;;
9310;SDS011;4694;52.464;13.480;2023-03-30T05:46:02;18.77;;;8.13;;
9310;SDS011;4694;52.464;13.480;2023-03-30T05:48:29;10.73;;;6.75;;
9310;SDS011;4694;52.464;13.480;2023-03-30T05:50:58;10.20;;;7.13;;
9310;SDS011;4694;52.464;13.480;2023-03-30T05:53:26;15.48;;;6.82;;
9310;SDS011;4694;52.464;13.480;2023-03-30T05:55:53;14.18;;;8.48;;
9310;SDS011;4694;52.464;13.480;2023-03-30T05:58:20;11.80;;;6.35;;
9310;SDS011;4694;52.464;13.480;2023-03-30T06:00:47;10.48;;;6.57;;
9310;SDS011;4694;52.464;13.480;2023-03-30T06:03:15;11.38;;;6.95;;
9310;SDS011;4694;52.464;13.480;2023-03-30T06:05:44;10.63;;;7.07;;
9310;SDS011;4694;52.464;13.480;2023-03-30T06:08:13;11.35;;;7.13;;
9310;SDS011;4694;52.464;13.480;2023-03-30T06:10:41;18.17;;;8.40;;
9310;SDS011;4694;52.464;13.480;2023-03-30T06:13:08;13.68;;;6.95;;
9310;SDS011;4694;52.464;13.480;2023-03-30T06:15:36;14.38;;;7.13;;
9310;SDS011;4694;52.464;13.480;2023-03-30T06:18:05;8.52;;;6.47;;
9310;SDS011;4694;52.464;13.480;2023-03-30T06:20:32;11.45;;;6.68;;
9310;SDS011;4694;52.464;13.480;2023-03-30T06:23:00;10.55;;;6.50;;
9310;SDS011;4694;52.464;13.480;2023-03-30T06:25:37;15.10;;;5.80;;
9310;SDS011;4694;52.464;13.480;2023-03-30T06:28:05;9.45;;;5.80;;
9310;SDS011;4694;52.464;13.480;2023-03-30T06:30:32;6.00;;;4.80;;
9310;SDS011;4694;52.464;13.480;2023-03-30T06:33:01;10.40;;;6.55;;
9310;SDS011;4694;52.464;13.480;2023-03-30T06:35:33;10.50;;;6.60;;
9310;SDS011;4694;52.464;13.480;2023-03-30T06:38:04;8.77;;;6.18;;
9310;SDS011;4694;52.464;13.480;2023-03-30T06:43:20;11.02;;;5.80;;
9310;SDS011;4694;52.464;13.480;2023-03-30T06:46:02;7.65;;;5.18;;
9310;SDS011;4694;52.464;13.480;2023-03-30T06:48:37;10.88;;;6.25;;
9310;SDS011;4694;52.464;13.480;2023-03-30T06:51:11;9.55;;;5.28;;
9310;SDS011;4694;52.464;13.480;2023-03-30T06:53:41;15.15;;;5.63;;
9310;SDS011;4694;52.464;13.480;2023-03-30T06:56:10;6.75;;;5.03;;
9310;SDS011;4694;52.464;13.480;2023-03-30T06:58:44;8.07;;;4.85;;
9310;SDS011;4694;52.464;13.480;2023-03-30T07:01:14;8.98;;;5.18;;
9310;SDS011;4694;52.464;13.480;2023-03-30T07:03:43;8.10;;;5.70;;
9310;SDS011;4694;52.464;13.480;2023-03-30T07:06:12;11.65;;;6.13;;
9310;SDS011;4694;52.464;13.480;2023-03-30T07:08:51;9.13;;;4.85;;
9310;SDS011;4694;52.464;13.480;2023-03-30T07:11:27;9.43;;;6.13;;
9310;SDS011;4694;52.464;13.480;2023-03-30T07:16:48;8.68;;;5.13;;
9310;SDS011;4694;52.464;13.480;2023-03-30T07:19:18;9.38;;;4.88;;
9310;SDS011;4694;52.464;13.480;2023-03-30T07:21:47;7.15;;;4.68;;
9310;SDS011;4694;52.464;13.480;2023-03-30T07:24:20;9.65;;;4.75;;
9310;SDS011;4694;52.464;13.480;2023-03-30T07:26:57;8.02;;;4.43;;
9310;SDS011;4694;52.464;13.480;2023-03-30T07:29:25;8.85;;;5.03;;
9310;SDS011;4694;52.464;13.480;2023-03-30T07:31:57;8.80;;;4.13;;
9310;SDS011;4694;52.464;13.480;2023-03-30T07:35:01;10.10;;;4.75;;
9310;SDS011;4694;52.464;13.480;2023-03-30T07:37:28;8.95;;;5.00;;
9310;SDS011;4694;52.464;13.480;2023-03-30T07:39:55;6.60;;;4.07;;
9310;SDS011;4694;52.464;13.480;2023-03-30T07:42:23;10.65;;;4.70;;
9310;SDS011;4694;52.464;13.480;2023-03-30T07:44:50;5.65;;;4.00;;
9310;SDS011;4694;52.464;13.480;2023-03-30T07:47:19;10.75;;;5.03;;
9310;SDS011;4694;52.464;13.480;2023-03-30T07:49:46;6.45;;;4.10;;
9310;SDS011;4694;52.464;13.480;2023-03-30T07:52:14;4.88;;;4.07;;
9310;SDS011;4694;52.464;13.480;2023-03-30T07:54:41;6.05;;;3.95;;
9310;SDS011;4694;52.464;13.480;2023-03-30T07:57:09;7.93;;;4.68;;
9310;SDS011;4694;52.464;13.480;2023-03-30T07:59:36;9.10;;;5.10;;
9310;SDS011;4694;52.464;13.480;2023-03-30T08:02:05;6.43;;;3.50;;
9310;SDS011;4694;52.464;13.480;2023-03-30T08:04:34;4.68;;;3.80;;
9310;SDS011;4694;52.464;13.480;2023-03-30T08:07:03;6.25;;;4.15;;
9310;SDS011;4694;52.464;13.480;2023-03-30T08:09:31;7.07;;;4.20;;
9310;SDS011;4694;52.464;13.480;2023-03-30T08:11:59;8.95;;;5.70;;
9310;SDS011;4694;52.464;13.480;2023-03-30T08:14:27;9.98;;;4.32;;
9310;SDS011;4694;52.464;13.480;2023-03-30T08:16:58;4.93;;;3.35;;
9310;SDS011;4694;52.464;13.480;2023-03-30T08:19:26;7.80;;;4.10;;
9310;SDS011;4694;52.464;13.480;2023-03-30T08:21:55;5.10;;;3.60;;
9310;SDS011;4694;52.464;13.480;2023-03-30T08:24:31;9.95;;;3.58;;
9310;SDS011;4694;52.464;13.480;2023-03-30T08:27:04;6.05;;;3.90;;
9310;SDS011;4694;52.464;13.480;2023-03-30T08:29:33;5.45;;;2.75;;
9310;SDS011;4694;52.464;13.480;2023-03-30T08:32:00;4.07;;;3.05;;
9310;SDS011;4694;52.464;13.480;2023-03-30T08:34:27;5.82;;;2.90;;
9310;SDS011;4694;52.464;13.480;2023-03-30T08:36:54;3.10;;;2.67;;
9310;SDS011;4694;52.464;13.480;2023-03-30T08:39:22;5.50;;;2.97;;
9310;SDS011;4694;52.464;13.480;2023-03-30T08:41:54;5.68;;;3.10;;
9310;SDS011;4694;52.464;13.480;2023-03-30T08:44:30;6.18;;;2.33;;
9310;SDS011;4694;52.464;13.480;2023-03-30T08:46:59;5.45;;;3.45;;
9310;SDS011;4694;52.464;13.480;2023-03-30T08:49:26;4.60;;;2.60;;
9310;SDS011;4694;52.464;13.480;2023-03-30T08:51:55;4.72;;;2.25;;
9310;SDS011;4694;52.464;13.480;2023-03-30T08:54:23;3.92;;;2.20;;
9310;SDS011;4694;52.464;13.480;2023-03-30T08:56:59;3.70;;;2.00;;
9310;SDS011;4694;52.464;13.480;2023-03-30T08:59:29;3.25;;;2.95;;
9310;SDS011;4694;52.464;13.480;2023-03-30T09:02:02;5.35;;;2.30;;
9310;SDS011;4694;52.464;13.480;2023-03-30T09:04:44;8.75;;;2.92;;
9310;SDS011;4694;52.464;13.480;2023-03-30T09:07:21;5.88;;;1.80;;
9310;SDS011;4694;52.464;13.480;2023-03-30T09:09:49;7.18;;;2.75;;
9310;SDS011;4694;52.464;13.480;2023-03-30T09:12:22;7.05;;;2.97;;
9310;SDS011;4694;52.464;13.480;2023-03-30T09:14:57;4.57;;;2.20;;
9310;SDS011;4694;52.464;13.480;2023-03-30T09:17:26;6.65;;;2.95;;
9310;SDS011;4694;52.464;13.480;2023-03-30T09:19:59;6.15;;;2.75;;
9310;SDS011;4694;52.464;13.480;2023-03-30T09:22:28;9.20;;;3.90;;
9310;SDS011;4694;52.464;13.480;2023-03-30T09:24:58;4.80;;;2.80;;
9310;SDS011;4694;52.464;13.480;2023-03-30T09:27:30;6.35;;;2.72;;
9310;SDS011;4694;52.464;13.480;2023-03-30T09:30:01;7.35;;;2.72;;
9310;SDS011;4694;52.464;13.480;2023-03-30T09:32:35;8.90;;;2.92;;
9310;SDS011;4694;52.464;13.480;2023-03-30T09:35:14;6.13;;;3.28;;
9310;SDS011;4694;52.464;13.480;2023-03-30T09:37:45;4.82;;;2.58;;
9310;SDS011;4694;52.464;13.480;2023-03-30T09:40:17;8.32;;;2.40;;
9310;SDS011;4694;52.464;13.480;2023-03-30T09:42:51;4.50;;;2.47;;
9310;SDS011;4694;52.464;13.480;2023-03-30T09:45:24;6.75;;;2.22;;
9310;SDS011;4694;52.464;13.480;2023-03-30T09:47:52;5.35;;;2.33;;
9310;SDS011;4694;52.464;13.480;2023-03-30T09:50:21;4.28;;;2.45;;
9310;SDS011;4694;52.464;13.480;2023-03-30T09:52:53;7.00;;;2.80;;
9310;SDS011;4694;52.464;13.480;2023-03-30T09:55:25;8.02;;;3.63;;
9310;SDS011;4694;52.464;13.480;2023-03-30T09:57:54;8.13;;;2.50;;
9310;SDS011;4694;52.464;13.480;2023-03-30T10:00:41;4.80;;;2.00;;
9310;SDS011;4694;52.464;13.480;2023-03-30T10:03:12;13.70;;;2.45;;
9310;SDS011;4694;52.464;13.480;2023-03-30T10:05:45;7.05;;;1.95;;
9310;SDS011;4694;52.464;13.480;2023-03-30T10:08:27;6.25;;;2.40;;
9310;SDS011;4694;52.464;13.480;2023-03-30T10:10:55;6.18;;;4.03;;
9310;SDS011;4694;52.464;13.480;2023-03-30T10:13:26;4.80;;;2.97;;
9310;SDS011;4694;52.464;13.480;2023-03-30T10:15:54;2.95;;;2.53;;
9310;SDS011;4694;52.464;13.480;2023-03-30T10:18:25;7.03;;;2.88;;
9310;SDS011;4694;52.464;13.480;2023-03-30T10:20:59;6.47;;;1.70;;
9310;SDS011;4694;52.464;13.480;2023-03-30T10:23:28;6.65;;;2.42;;
9310;SDS011;4694;52.464;13.480;2023-03-30T10:25:59;9.25;;;3.03;;
9310;SDS011;4694;52.464;13.480;2023-03-30T10:28:30;6.50;;;2.75;;
9310;SDS011;4694;52.464;13.480;2023-03-30T10:31:06;9.43;;;2.08;;
9310;SDS011;4694;52.464;13.480;2023-03-30T10:33:40;12.43;;;2.45;;
9310;SDS011;4694;52.464;13.480;2023-03-30T10:36:09;7.25;;;2.05;;
9310;SDS011;4694;52.464;13.480;2023-03-30T10:38:39;8.48;;;2.65;;
9310;SDS011;4694;52.464;13.480;2023-03-30T10:41:08;6.35;;;3.05;;
9310;SDS011;4694;52.464;13.480;2023-03-30T10:43:41;4.85;;;2.78;;
9310;SDS011;4694;52.464;13.480;2023-03-30T10:46:11;5.30;;;2.10;;
9310;SDS011;4694;52.464;13.480;2023-03-30T10:48:47;7.22;;;2.17;;
9310;SDS011;4694;52.464;13.480;2023-03-30T10:51:22;4.60;;;2.55;;
9310;SDS011;4694;52.464;13.480;2023-03-30T10:54:04;5.60;;;2.35;;
9310;SDS011;4694;52.464;13.480;2023-03-30T10:56:36;7.43;;;4.15;;
9310;SDS011;4694;52.464;13.480;2023-03-30T10:59:16;6.60;;;1.92;;
9310;SDS011;4694;52.464;13.480;2023-03-30T11:01:54;10.07;;;2.28;;
9310;SDS011;4694;52.464;13.480;2023-03-30T11:04:25;10.35;;;2.80;;
9310;SDS011;4694;52.464;13.480;2023-03-30T11:07:04;4.82;;;1.90;;
9310;SDS011;4694;52.464;13.480;2023-03-30T11:09:37;6.75;;;2.05;;
9310;SDS011;4694;52.464;13.480;2023-03-30T11:12:06;9.82;;;2.50;;
9310;SDS011;4694;52.464;13.480;2023-03-30T11:14:55;9.65;;;2.95;;
9310;SDS011;4694;52.464;13.480;2023-03-30T11:17:25;7.22;;;3.67;;
9310;SDS011;4694;52.464;13.480;2023-03-30T11:19:54;8.55;;;2.17;;
9310;SDS011;4694;52.464;13.480;2023-03-30T11:22:25;11.50;;;3.28;;
9310;SDS011;4694;52.464;13.480;2023-03-30T11:24:56;9.65;;;2.80;;
9310;SDS011;4694;52.464;13.480;2023-03-30T11:27:25;5.10;;;1.77;;
9310;SDS011;4694;52.464;13.480;2023-03-30T11:29:57;7.70;;;2.70;;
9310;SDS011;4694;52.464;13.480;2023-03-30T11:32:29;11.52;;;2.00;;
9310;SDS011;4694;52.464;13.480;2023-03-30T11:35:00;4.78;;;2.42;;
9310;SDS011;4694;52.464;13.480;2023-03-30T11:37:31;7.90;;;2.38;;
9310;SDS011;4694;52.464;13.480;2023-03-30T11:40:03;10.63;;;3.35;;
9310;SDS011;4694;52.464;13.480;2023-03-30T11:42:35;5.25;;;2.03;;
9310;SDS011;4694;52.464;13.480;2023-03-30T11:45:10;5.03;;;2.55;;
9310;SDS011;4694;52.464;13.480;2023-03-30T11:47:50;4.75;;;2.67;;
9310;SDS011;4694;52.464;13.480;2023-03-30T11:50:27;4.75;;;1.77;;
9310;SDS011;4694;52.464;13.480;2023-03-30T11:53:10;11.15;;;2.63;;
9310;SDS011;4694;52.464;13.480;2023-03-30T11:55:55;8.93;;;3.28;;
9310;SDS011;4694;52.464;13.480;2023-03-30T11:58:28;7.03;;;3.08;;
9310;SDS011;4694;52.464;13.480;2023-03-30T12:03:43;3.55;;;2.45;;
9310;SDS011;4694;52.464;13.480;2023-03-30T12:06:26;9.43;;;2.83;;
9310;SDS011;4694;52.464;13.480;2023-03-30T12:08:59;8.43;;;3.15;;
9310;SDS011;4694;52.464;13.480;2023-03-30T12:11:32;5.60;;;2.42;;
9310;SDS011;4694;52.464;13.480;2023-03-30T12:14:01;9.30;;;3.05;;
9310;SDS011;4694;52.464;13.480;2023-03-30T12:16:29;8.15;;;2.50;;
9310;SDS011;4694;52.464;13.480;2023-03-30T12:21:29;9.63;;;2.38;;
9310;SDS011;4694;52.464;13.480;2023-03-30T12:23:59;6.07;;;2.80;;
9310;SDS011;4694;52.464;13.480;2023-03-30T12:26:31;6.30;;;3.55;;
9310;SDS011;4694;52.464;13.480;2023-03-30T12:29:07;7.45;;;3.13;;
9310;SDS011;4694;52.464;13.480;2023-03-30T12:31:49;7.78;;;3.47;;
9310;SDS011;4694;52.464;13.480;2023-03-30T12:34:20;7.72;;;2.58;;
9310;SDS011;4694;52.464;13.480;2023-03-30T12:36:51;6.38;;;2.50;;
9310;SDS011;4694;52.464;13.480;2023-03-30T12:39:21;5.00;;;2.28;;
9310;SDS011;4694;52.464;13.480;2023-03-30T12:41:51;5.18;;;2.45;;
9310;SDS011;4694;52.464;13.480;2023-03-30T12:44:33;5.90;;;2.60;;
9310;SDS011;4694;52.464;13.480;2023-03-30T12:49:52;5.95;;;2.25;;
9310;SDS011;4694;52.464;13.480;2023-03-30T12:52:30;6.32;;;2.42;;
9310;SDS011;4694;52.464;13.480;2023-03-30T12:55:11;5.25;;;2.38;;
9310;SDS011;4694;52.464;13.480;2023-03-30T12:57:46;5.22;;;2.20;;
9310;SDS011;4694;52.464;13.480;2023-03-30T13:03:18;7.82;;;2.63;;
9310;SDS011;4694;52.464;13.480;2023-03-30T13:05:53;8.15;;;2.38;;
9310;SDS011;4694;52.464;13.480;2023-03-30T13:11:05;10.52;;;2.30;;
9310;SDS011;4694;52.464;13.480;2023-03-30T13:13:47;10.05;;;3.72;;
9310;SDS011;4694;52.464;13.480;2023-03-30T13:19:13;18.27;;;2.88;;
9310;SDS011;4694;52.464;13.480;2023-03-30T13:21:47;4.45;;;2.28;;
9310;SDS011;4694;52.464;13.480;2023-03-30T13:24:23;8.10;;;2.42;;
9310;SDS011;4694;52.464;13.480;2023-03-30T13:26:55;9.15;;;2.25;;
9310;SDS011;4694;52.464;13.480;2023-03-30T13:29:37;4.03;;;2.38;;
9310;SDS011;4694;52.464;13.480;2023-03-30T13:32:12;4.28;;;2.22;;
9310;SDS011;4694;52.464;13.480;2023-03-30T13:34:53;7.85;;;3.08;;
9310;SDS011;4694;52.464;13.480;2023-03-30T13:40:19;6.85;;;2.17;;
9310;SDS011;4694;52.464;13.480;2023-03-30T13:42:53;13.48;;;2.63;;
9310;SDS011;4694;52.464;13.480;2023-03-30T13:45:29;7.43;;;2.40;;
9310;SDS011;4694;52.464;13.480;2023-03-30T13:48:01;4.80;;;2.30;;
9310;SDS011;4694;52.464;13.480;2023-03-30T13:50:33;7.13;;;1.98;;
9310;SDS011;4694;52.464;13.480;2023-03-30T13:53:03;4.55;;;2.63;;
9310;SDS011;4694;52.464;13.480;2023-03-30T13:55:34;8.85;;;2.53;;
9310;SDS011;4694;52.464;13.480;2023-03-30T13:58:05;6.53;;;2.45;;
9310;SDS011;4694;52.464;13.480;2023-03-30T14:00:37;4.80;;;2.58;;
9310;SDS011;4694;52.464;13.480;2023-03-30T14:03:24;11.25;;;3.03;;
9310;SDS011;4694;52.464;13.480;2023-03-30T14:05:58;4.70;;;2.25;;
9310;SDS011;4694;52.464;13.480;2023-03-30T14:08:29;6.20;;;1.40;;
9310;SDS011;4694;52.464;13.480;2023-03-30T14:11:06;2.97;;;1.38;;
9310;SDS011;4694;52.464;13.480;2023-03-30T14:13:38;6.55;;;1.40;;
9310;SDS011;4694;52.464;13.480;2023-03-30T14:16:06;3.67;;;1.48;;
9310;SDS011;4694;52.464;13.480;2023-03-30T14:18:33;3.60;;;1.33;;
9310;SDS011;4694;52.464;13.480;2023-03-30T14:21:01;3.88;;;1.58;;
9310;SDS011;4694;52.464;13.480;2023-03-30T14:23:32;5.45;;;1.77;;
9310;SDS011;4694;52.464;13.480;2023-03-30T14:26:04;4.65;;;1.80;;
9310;SDS011;4694;52.464;13.480;2023-03-30T14:28:35;8.05;;;2.80;;
9310;SDS011;4694;52.464;13.480;2023-03-30T14:31:10;6.63;;;2.47;;
9310;SDS011;4694;52.464;13.480;2023-03-30T14:33:38;6.00;;;2.65;;
9310;SDS011;4694;52.464;13.480;2023-03-30T14:36:05;2.97;;;2.42;;
9310;SDS011;4694;52.464;13.480;2023-03-30T14:38:36;5.05;;;2.50;;
9310;SDS011;4694;52.464;13.480;2023-03-30T14:41:09;6.10;;;3.20;;
9310;SDS011;4694;52.464;13.480;2023-03-30T14:43:41;5.18;;;2.90;;
9310;SDS011;4694;52.464;13.480;2023-03-30T14:46:14;5.97;;;2.55;;
9310;SDS011;4694;52.464;13.480;2023-03-30T14:48:42;4.75;;;2.22;;
9310;SDS011;4694;52.464;13.480;2023-03-30T14:51:20;3.90;;;2.22;;
9310;SDS011;4694;52.464;13.480;2023-03-30T14:53:49;7.25;;;3.22;;
9310;SDS011;4694;52.464;13.480;2023-03-30T14:56:17;6.85;;;3.65;;
9310;SDS011;4694;52.464;13.480;2023-03-30T14:58:44;5.97;;;3.38;;
9310;SDS011;4694;52.464;13.480;2023-03-30T15:01:16;7.32;;;2.72;;
9310;SDS011;4694;52.464;13.480;2023-03-30T15:03:44;7.10;;;3.38;;
9310;SDS011;4694;52.464;13.480;2023-03-30T15:06:28;5.47;;;3.47;;
9310;SDS011;4694;52.464;13.480;2023-03-30T15:08:58;12.10;;;4.13;;
9310;SDS011;4694;52.464;13.480;2023-03-30T15:11:26;9.80;;;6.20;;
9310;SDS011;4694;52.464;13.480;2023-03-30T15:14:00;8.57;;;3.63;;
9310;SDS011;4694;52.464;13.480;2023-03-30T15:16:29;9.95;;;4.25;;
9310;SDS011;4694;52.464;13.480;2023-03-30T15:18:58;4.93;;;3.42;;
9310;SDS011;4694;52.464;13.480;2023-03-30T15:21:27;5.43;;;3.03;;
9310;SDS011;4694;52.464;13.480;2023-03-30T15:23:55;10.77;;;4.07;;
9310;SDS011;4694;52.464;13.480;2023-03-30T15:26:24;5.00;;;3.30;;
9310;SDS011;4694;52.464;13.480;2023-03-30T15:28:54;7.22;;;4.35;;
9310;SDS011;4694;52.464;13.480;2023-03-30T15:31:25;7.57;;;2.83;;
9310;SDS011;4694;52.464;13.480;2023-03-30T15:33:55;5.88;;;2.60;;
9310;SDS011;4694;52.464;13.480;2023-03-30T15:36:24;6.35;;;2.97;;
9310;SDS011;4694;52.464;13.480;2023-03-30T15:38:54;6.78;;;2.90;;
9310;SDS011;4694;52.464;13.480;2023-03-30T15:41:23;5.53;;;2.85;;
9310;SDS011;4694;52.464;13.480;2023-03-30T15:44:08;4.05;;;2.70;;
9310;SDS011;4694;52.464;13.480;2023-03-30T15:46:36;7.00;;;4.40;;
9310;SDS011;4694;52.464;13.480;2023-03-30T15:49:05;6.35;;;3.00;;
9310;SDS011;4694;52.464;13.480;2023-03-30T15:51:34;7.75;;;2.22;;
9310;SDS011;4694;52.464;13.480;2023-03-30T15:54:03;5.80;;;3.00;;
9310;SDS011;4694;52.464;13.480;2023-03-30T15:56:37;7.45;;;2.80;;
9310;SDS011;4694;52.464;13.480;2023-03-30T15:59:08;4.03;;;2.88;;
9310;SDS011;4694;52.464;13.480;2023-03-30T16:01:40;6.68;;;3.22;;
9310;SDS011;4694;52.464;13.480;2023-03-30T16:04:10;6.53;;;2.97;;
9310;SDS011;4694;52.464;13.480;2023-03-30T16:06:39;7.85;;;3.35;;
9310;SDS011;4694;52.464;13.480;2023-03-30T16:09:06;7.60;;;3.45;;
9310;SDS011;4694;52.464;13.480;2023-03-30T16:11:33;7.18;;;3.38;;
9310;SDS011;4694;52.464;13.480;2023-03-30T16:14:02;7.63;;;3.42;;
9310;SDS011;4694;52.464;13.480;2023-03-30T16:16:30;10.25;;;2.85;;
9310;SDS011;4694;52.464;13.480;2023-03-30T16:18:58;7.03;;;2.55;;
9310;SDS011;4694;52.464;13.480;2023-03-30T16:21:26;8.82;;;2.88;;
9310;SDS011;4694;52.464;13.480;2023-03-30T16:23:53;6.80;;;2.63;;
9310;SDS011;4694;52.464;13.480;2023-03-30T16:26:20;8.02;;;3.78;;
9310;SDS011;4694;52.464;13.480;2023-03-30T16:28:48;6.47;;;3.80;;
9310;SDS011;4694;52.464;13.480;2023-03-30T16:31:17;7.25;;;5.20;;
9310;SDS011;4694;52.464;13.480;2023-03-30T16:33:44;5.65;;;3.03;;
9310;SDS011;4694;52.464;13.480;2023-03-30T16:36:11;7.50;;;3.53;;
9310;SDS011;4694;52.464;13.480;2023-03-30T16:38:41;6.88;;;3.90;;
9310;SDS011;4694;52.464;13.480;2023-03-30T16:41:08;4.90;;;3.15;;
9310;SDS011;4694;52.464;13.480;2023-03-30T16:43:36;7.30;;;3.65;;
9310;SDS011;4694;52.464;13.480;2023-03-30T16:46:03;6.15;;;3.03;;
9310;SDS011;4694;52.464;13.480;2023-03-30T16:48:30;10.43;;;4.22;;
9310;SDS011;4694;52.464;13.480;2023-03-30T16:50:57;7.28;;;3.05;;
9310;SDS011;4694;52.464;13.480;2023-03-30T16:53:24;8.60;;;2.30;;
9310;SDS011;4694;52.464;13.480;2023-03-30T16:55:53;4.57;;;2.65;;
9310;SDS011;4694;52.464;13.480;2023-03-30T16:58:20;4.28;;;2.83;;
9310;SDS011;4694;52.464;13.480;2023-03-30T17:00:47;4.32;;;2.60;;
9310;SDS011;4694;52.464;13.480;2023-03-30T17:03:15;4.95;;;3.47;;
9310;SDS011;4694;52.464;13.480;2023-03-30T17:05:43;8.32;;;3.40;;
9310;SDS011;4694;52.464;13.480;2023-03-30T17:08:13;6.05;;;2.80;;
9310;SDS011;4694;52.464;13.480;2023-03-30T17:10:41;10.93;;;3.38;;
9310;SDS011;4694;52.464;13.480;2023-03-30T17:13:10;7.38;;;3.50;;
9310;SDS011;4694;52.464;13.480;2023-03-30T17:15:37;5.70;;;2.55;;
9310;SDS011;4694;52.464;13.480;2023-03-30T17:18:04;6.40;;;3.67;;
9310;SDS011;4694;52.464;13.480;2023-03-30T17:20:35;11.90;;;3.50;;
9310;SDS011;4694;52.464;13.480;2023-03-30T17:23:02;9.57;;;3.03;;
9310;SDS011;4694;52.464;13.480;2023-03-30T17:25:29;17.05;;;3.90;;
9310;SDS011;4694;52.464;13.480;2023-03-30T17:27:56;11.13;;;4.70;;
9310;SDS011;4694;52.464;13.480;2023-03-30T17:30:27;5.78;;;3.78;;
9310;SDS011;4694;52.464;13.480;2023-03-30T17:32:55;6.75;;;3.53;;
9310;SDS011;4694;52.464;13.480;2023-03-30T17:35:22;8.40;;;3.80;;
9310;SDS011;4694;52.464;13.480;2023-03-30T17:37:50;9.40;;;4.10;;
9310;SDS011;4694;52.464;13.480;2023-03-30T17:40:18;12.98;;;4.63;;
9310;SDS011;4694;52.464;13.480;2023-03-30T17:42:45;7.82;;;3.58;;
9310;SDS011;4694;52.464;13.480;2023-03-30T17:45:13;10.65;;;6.78;;
9310;SDS011;4694;52.464;13.480;2023-03-30T17:47:42;8.93;;;5.03;;
9310;SDS011;4694;52.464;13.480;2023-03-30T17:50:20;5.03;;;4.47;;
9310;SDS011;4694;52.464;13.480;2023-03-30T17:52:47;10.93;;;4.25;;
9310;SDS011;4694;52.464;13.480;2023-03-30T17:55:15;10.88;;;5.47;;
9310;SDS011;4694;52.464;13.480;2023-03-30T17:57:42;7.88;;;5.13;;
9310;SDS011;4694;52.464;13.480;2023-03-30T18:00:13;7.97;;;6.18;;
9310;SDS011;4694;52.464;13.480;2023-03-30T18:02:43;8.25;;;5.57;;
9310;SDS011;4694;52.464;13.480;2023-03-30T18:05:10;11.10;;;5.30;;
9310;SDS011;4694;52.464;13.480;2023-03-30T18:07:37;15.63;;;5.63;;
9310;SDS011;4694;52.464;13.480;2023-03-30T18:10:14;11.52;;;5.50;;
9310;SDS011;4694;52.464;13.480;2023-03-30T18:12:41;15.63;;;6.07;;
9310;SDS011;4694;52.464;13.480;2023-03-30T18:15:08;7.93;;;5.43;;
9310;SDS011;4694;52.464;13.480;2023-03-30T18:17:35;12.00;;;5.40;;
9310;SDS011;4694;52.464;13.480;2023-03-30T18:20:09;13.65;;;7.38;;
9310;SDS011;4694;52.464;13.480;2023-03-30T18:22:40;12.05;;;6.47;;
9310;SDS011;4694;52.464;13.480;2023-03-30T18:25:07;10.98;;;7.22;;
9310;SDS011;4694;52.464;13.480;2023-03-30T18:27:34;11.65;;;8.80;;
9310;SDS011;4694;52.464;13.480;2023-03-30T18:30:01;14.45;;;8.13;;
9310;SDS011;4694;52.464;13.480;2023-03-30T18:32:29;12.63;;;7.22;;
9310;SDS011;4694;52.464;13.480;2023-03-30T18:34:56;13.40;;;7.70;;
9310;SDS011;4694;52.464;13.480;2023-03-30T18:37:27;13.02;;;6.65;;
9310;SDS011;4694;52.464;13.480;2023-03-30T18:39:54;17.90;;;8.20;;
9310;SDS011;4694;52.464;13.480;2023-03-30T18:42:21;15.52;;;7.32;;
9310;SDS011;4694;52.464;13.480;2023-03-30T18:44:48;16.35;;;9.15;;
9310;SDS011;4694;52.464;13.480;2023-03-30T18:47:15;14.68;;;8.88;;
9310;SDS011;4694;52.464;13.480;2023-03-30T18:49:43;15.48;;;7.65;;
9310;SDS011;4694;52.464;13.480;2023-03-30T18:52:10;11.90;;;8.30;;
9310;SDS011;4694;52.464;13.480;2023-03-30T18:54:38;11.15;;;6.93;;
9310;SDS011;4694;52.464;13.480;2023-03-30T18:57:05;11.63;;;6.07;;
9310;SDS011;4694;52.464;13.480;2023-03-30T18:59:33;13.63;;;7.57;;
9310;SDS011;4694;52.464;13.480;2023-03-30T19:02:01;10.20;;;7.13;;
9310;SDS011;4694;52.464;13.480;2023-03-30T19:04:28;8.95;;;6.53;;
9310;SDS011;4694;52.464;13.480;2023-03-30T19:06:54;11.52;;;6.93;;
9310;SDS011;4694;52.464;13.480;2023-03-30T19:09:23;15.85;;;6.60;;
9310;SDS011;4694;52.464;13.480;2023-03-30T19:11:51;8.95;;;5.60;;
9310;SDS011;4694;52.464;13.480;2023-03-30T19:14:18;10.75;;;5.85;;
9310;SDS011;4694;52.464;13.480;2023-03-30T19:16:45;9.77;;;4.50;;
9310;SDS011;4694;52.464;13.480;2023-03-30T19:19:14;9.10;;;5.15;;
9310;SDS011;4694;52.464;13.480;2023-03-30T19:21:41;8.15;;;4.18;;
9310;SDS011;4694;52.464;13.480;2023-03-30T19:24:10;10.48;;;5.53;;
9310;SDS011;4694;52.464;13.480;2023-03-30T19:26:37;10.40;;;5.03;;
9310;SDS011;4694;52.464;13.480;2023-03-30T19:29:06;10.90;;;5.15;;
9310;SDS011;4694;52.464;13.480;2023-03-30T19:31:33;15.88;;;5.28;;
9310;SDS011;4694;52.464;13.480;2023-03-30T19:34:00;5.90;;;4.13;;
9310;SDS011;4694;52.464;13.480;2023-03-30T19:36:27;5.22;;;1.80;;
9310;SDS011;4694;52.464;13.480;2023-03-30T19:38:54;6.70;;;2.75;;
9310;SDS011;4694;52.464;13.480;2023-03-30T19:41:21;7.30;;;1.30;;
9310;SDS011;4694;52.464;13.480;2023-03-30T19:43:50;2.47;;;0.85;;
9310;SDS011;4694;52.464;13.480;2023-03-30T19:46:18;2.60;;;1.27;;
9310;SDS011;4694;52.464;13.480;2023-03-30T19:48:46;1.88;;;0.95;;
9310;SDS011;4694;52.464;13.480;2023-03-30T19:51:13;5.50;;;1.30;;
9310;SDS011;4694;52.464;13.480;2023-03-30T19:53:43;2.15;;;0.60;;
9310;SDS011;4694;52.464;13.480;2023-03-30T19:56:10;1.08;;;0.77;;
9310;SDS011;4694;52.464;13.480;2023-03-30T19:58:37;2.53;;;0.60;;
9310;SDS011;4694;52.464;13.480;2023-03-30T20:01:05;1.42;;;0.30;;
9310;SDS011;4694;52.464;13.480;2023-03-30T20:03:35;2.22;;;0.40;;
9310;SDS011;4694;52.464;13.480;2023-03-30T20:06:03;2.85;;;0.40;;
9310;SDS011;4694;52.464;13.480;2023-03-30T20:08:33;2.65;;;0.55;;
9310;SDS011;4694;52.464;13.480;2023-03-30T20:11:03;0.80;;;0.50;;
9310;SDS011;4694;52.464;13.480;2023-03-30T20:13:31;1.08;;;0.52;;
9310;SDS011;4694;52.464;13.480;2023-03-30T20:15:58;1.08;;;0.40;;
9310;SDS011;4694;52.464;13.480;2023-03-30T20:18:27;1.95;;;0.95;;
9310;SDS011;4694;52.464;13.480;2023-03-30T20:20:56;2.25;;;0.70;;
9310;SDS011;4694;52.464;13.480;2023-03-30T20:23:23;2.42;;;0.88;;
9310;SDS011;4694;52.464;13.480;2023-03-30T20:25:50;1.70;;;0.40;;
9310;SDS011;4694;52.464;13.480;2023-03-30T20:28:20;3.42;;;0.50;;
9310;SDS011;4694;52.464;13.480;2023-03-30T20:30:47;3.13;;;1.02;;
9310;SDS011;4694;52.464;13.480;2023-03-30T20:33:15;3.35;;;1.27;;
